Wetterdaten: Woche 18.09.06 - 24.09.06 (KW38)
Datum Zeit Temperatur Luftfeuchte Luftdruck Niederschlag Wind Richtung Sonnenschein UV-Strahlung Solar Taupunkt Windchill Windben
18.09.2006 00:00 15.5 C 98 % 1011.4 hPa 0.2 l/m 1.6 km/h (1 Bft) S-SO 0.00 h 0.0 UV-I 0 W/m 15.1 C 15.5 C 3.6 km/h (1 Bft)
18.09.2006 01:00 15.3 C 98 % 1011.6 hPa 4.8 l/m 1.8 km/h (1 Bft) S-SO 0.00 h 0.0 UV-I 0 W/m 14.9 C 15.3 C 4.3 km/h (1 Bft)
18.09.2006 02:00 15.1 C 98 % 1011.3 hPa 3.2 l/m 2.7 km/h (1 Bft) S-SO 0.00 h 0.0 UV-I 0 W/m 14.8 C 15.1 C 5.4 km/h (1 Bft)
18.09.2006 03:00 15.0 C 99 % 1011.3 hPa 2.4 l/m 2.5 km/h (1 Bft) S-SO 0.00 h 0.0 UV-I 0 W/m 14.8 C 15.0 C 4.9 km/h (1 Bft)
18.09.2006 04:00 15.0 C 98 % 1011.3 hPa 1.4 l/m 1.7 km/h (1 Bft) SO 0.00 h 0.0 UV-I 0 W/m 14.7 C 15.0 C 3.8 km/h (1 Bft)
18.09.2006 05:00 15.0 C 97 % 1011.4 hPa 0.2 l/m 1.3 km/h (1 Bft) S-SO 0.00 h 0.0 UV-I 0 W/m 14.6 C 15.0 C 3.4 km/h (1 Bft)
18.09.2006 06:00 14.8 C 97 % 1011.8 hPa 0.2 l/m 4.2 km/h (1 Bft) W-NW 0.00 h 0.0 UV-I 0 W/m 14.4 C 14.8 C 7.4 km/h (2 Bft)
18.09.2006 07:00 14.8 C 97 % 1012.1 hPa 1.4 l/m 0.9 km/h (0 Bft) N-NW 0.00 h 0.0 UV-I 9 W/m 14.3 C 14.8 C 2.6 km/h (1 Bft)
18.09.2006 08:00 14.7 C 98 % 1012.5 hPa 0.6 l/m 1.0 km/h (0 Bft) W-SW 0.00 h 0.0 UV-I 14 W/m 14.5 C 14.7 C 3.3 km/h (1 Bft)
18.09.2006 09:00 14.8 C 98 % 1012.9 hPa 0.6 l/m 0.8 km/h (0 Bft) S-SO 0.00 h 0.0 UV-I 24 W/m 14.5 C 14.8 C 2.8 km/h (1 Bft)
18.09.2006 10:00 14.9 C 98 % 1013.4 hPa 2.8 l/m 1.4 km/h (1 Bft) W-NW 0.00 h 0.5 UV-I 31 W/m 14.6 C 14.9 C 2.6 km/h (1 Bft)
18.09.2006 11:00 14.9 C 98 % 1014.0 hPa 0.8 l/m 3.4 km/h (1 Bft) W-NW 0.00 h 0.8 UV-I 67 W/m 14.5 C 14.9 C 5.9 km/h (2 Bft)
18.09.2006 12:00 15.6 C 97 % 1013.8 hPa 0.2 l/m 2.1 km/h (1 Bft) W-SW 0.00 h 1.5 UV-I 139 W/m 15.0 C 15.6 C 5.0 km/h (1 Bft)
18.09.2006 13:00 15.4 C 97 % 1013.9 hPa 0.0 l/m 5.4 km/h (1 Bft) W-NW 0.00 h 0.9 UV-I 76 W/m 14.9 C 15.4 C 9.8 km/h (2 Bft)
18.09.2006 14:00 15.3 C 97 % 1014.1 hPa 0.2 l/m 10.9 km/h (2 Bft) W-NW 0.00 h 1.1 UV-I 106 W/m 14.8 C 15.3 C 17.2 km/h (3 Bft)
18.09.2006 15:00 15.2 C 96 % 1014.5 hPa 0.2 l/m 7.6 km/h (2 Bft) W 0.00 h 0.9 UV-I 96 W/m 14.7 C 15.2 C 12.4 km/h (3 Bft)
18.09.2006 16:00 15.4 C 95 % 1014.6 hPa 0.2 l/m 6.9 km/h (2 Bft) W 0.00 h 0.9 UV-I 127 W/m 14.7 C 15.4 C 11.2 km/h (2 Bft)
18.09.2006 17:00 15.5 C 96 % 1014.6 hPa 0.4 l/m 2.2 km/h (1 Bft) W-SW 0.00 h 0.6 UV-I 82 W/m 14.8 C 15.5 C 4.9 km/h (1 Bft)
18.09.2006 18:00 15.7 C 95 % 1014.9 hPa 0.0 l/m 1.8 km/h (1 Bft) S-SO 0.00 h 0.0 UV-I 55 W/m 14.9 C 15.7 C 4.2 km/h (1 Bft)
18.09.2006 19:00 15.4 C 96 % 1015.2 hPa 0.0 l/m 2.4 km/h (1 Bft) S-SO 0.00 h 0.0 UV-I 13 W/m 14.9 C 15.4 C 4.8 km/h (1 Bft)
18.09.2006 20:00 15.1 C 96 % 1015.6 hPa 0.0 l/m 2.4 km/h (1 Bft) S-SO 0.00 h 0.0 UV-I 0 W/m 14.5 C 15.1 C 4.7 km/h (1 Bft)
18.09.2006 21:00 14.9 C 96 % 1015.9 hPa 0.0 l/m 0.5 km/h (0 Bft) S-SO 0.00 h 0.0 UV-I 0 W/m 14.3 C 14.9 C 2.2 km/h (1 Bft)
18.09.2006 22:00 14.8 C 96 % 1016.2 hPa 0.0 l/m 2.8 km/h (1 Bft) S-SO 0.00 h 0.0 UV-I 0 W/m 14.1 C 14.8 C 5.0 km/h (1 Bft)
18.09.2006 23:00 14.7 C 96 % 1016.3 hPa 0.0 l/m 1.0 km/h (0 Bft) SO 0.00 h 0.0 UV-I 0 W/m 14.0 C 14.7 C 2.6 km/h (1 Bft)
19.09.2006 00:00 14.5 C 96 % 1016.4 hPa 0.0 l/m 1.4 km/h (1 Bft) S-SO 0.00 h 0.0 UV-I 0 W/m 13.9 C 14.5 C 3.1 km/h (1 Bft)
19.09.2006 01:00 14.2 C 97 % 1016.6 hPa 0.0 l/m 1.3 km/h (1 Bft) S-SO 0.00 h 0.0 UV-I 0 W/m 13.7 C 14.2 C 3.4 km/h (1 Bft)
19.09.2006 02:00 14.1 C 97 % 1016.6 hPa 0.0 l/m 1.8 km/h (1 Bft) S-SO 0.00 h 0.0 UV-I 0 W/m 13.7 C 14.1 C 4.5 km/h (1 Bft)
19.09.2006 03:00 14.1 C 97 % 1016.5 hPa 0.0 l/m 1.5 km/h (1 Bft) S-SO 0.00 h 0.0 UV-I 0 W/m 13.7 C 14.1 C 4.1 km/h (1 Bft)
19.09.2006 04:00 14.1 C 97 % 1016.5 hPa 0.0 l/m 1.7 km/h (1 Bft) S 0.00 h 0.0 UV-I 0 W/m 13.6 C 14.1 C 4.4 km/h (1 Bft)
19.09.2006 05:00 14.1 C 97 % 1016.3 hPa 0.0 l/m 2.8 km/h (1 Bft) S-SO 0.00 h 0.0 UV-I 0 W/m 13.6 C 14.1 C 5.4 km/h (1 Bft)
19.09.2006 06:00 14.2 C 96 % 1016.3 hPa 0.0 l/m 2.6 km/h (1 Bft) S-SO 0.00 h 0.0 UV-I 0 W/m 13.7 C 14.2 C 5.7 km/h (1 Bft)
19.09.2006 07:00 14.2 C 97 % 1016.7 hPa 0.0 l/m 2.5 km/h (1 Bft) S-SO 0.00 h 0.0 UV-I 8 W/m 13.6 C 14.2 C 5.5 km/h (1 Bft)
19.09.2006 08:00 14.7 C 95 % 1017.2 hPa 0.0 l/m 1.7 km/h (1 Bft) S-SO 0.00 h 0.6 UV-I 55 W/m 13.9 C 14.7 C 4.0 km/h (1 Bft)
19.09.2006 09:00 15.3 C 92 % 1017.4 hPa 0.0 l/m 4.2 km/h (1 Bft) W-SW 0.37 h 1.2 UV-I 188 W/m 14.0 C 15.3 C 7.8 km/h (2 Bft)
19.09.2006 10:00 16.2 C 86 % 1017.6 hPa 0.0 l/m 6.0 km/h (2 Bft) W-SW 0.30 h 1.9 UV-I 248 W/m 14.0 C 16.2 C 10.0 km/h (2 Bft)
19.09.2006 11:00 17.6 C 84 % 1017.7 hPa 0.0 l/m 3.5 km/h (1 Bft) W-SW 0.60 h 3.2 UV-I 431 W/m 14.8 C 17.6 C 6.4 km/h (2 Bft)
19.09.2006 12:00 18.5 C 80 % 1017.6 hPa 0.0 l/m 2.5 km/h (1 Bft) W 0.62 h 3.9 UV-I 475 W/m 15.0 C 18.5 C 5.3 km/h (1 Bft)
19.09.2006 13:00 19.5 C 76 % 1017.2 hPa 0.0 l/m 3.9 km/h (1 Bft) W 0.58 h 4.4 UV-I 475 W/m 15.1 C 19.5 C 7.0 km/h (2 Bft)
19.09.2006 14:00 20.3 C 68 % 1016.7 hPa 0.0 l/m 5.5 km/h (1 Bft) W-NW 0.53 h 3.6 UV-I 395 W/m 14.1 C 20.3 C 8.6 km/h (2 Bft)
19.09.2006 15:00 20.8 C 65 % 1016.3 hPa 0.0 l/m 5.8 km/h (2 Bft) W 0.73 h 2.9 UV-I 429 W/m 13.9 C 20.8 C 9.4 km/h (2 Bft)
19.09.2006 16:00 20.2 C 65 % 1016.3 hPa 0.0 l/m 7.0 km/h (2 Bft) W-NW 0.13 h 1.5 UV-I 239 W/m 13.3 C 20.2 C 11.5 km/h (2 Bft)
19.09.2006 17:00 19.9 C 64 % 1016.4 hPa 0.0 l/m 6.8 km/h (2 Bft) W-NW 0.58 h 1.0 UV-I 223 W/m 12.9 C 19.9 C 10.6 km/h (2 Bft)
19.09.2006 18:00 19.1 C 69 % 1016.4 hPa 0.0 l/m 3.8 km/h (1 Bft) W 0.10 h 0.6 UV-I 89 W/m 13.2 C 19.1 C 6.5 km/h (2 Bft)
19.09.2006 19:00 17.5 C 75 % 1017.0 hPa 0.0 l/m 1.3 km/h (1 Bft) S-SO 0.08 h 0.0 UV-I 17 W/m 13.0 C 17.5 C 2.9 km/h (1 Bft)
19.09.2006 20:00 15.5 C 87 % 1017.6 hPa 0.0 l/m 1.0 km/h (0 Bft) O-SO 0.00 h 0.0 UV-I 0 W/m 13.3 C 15.5 C 1.7 km/h (1 Bft)
19.09.2006 21:00 14.8 C 91 % 1018.2 hPa 0.0 l/m 2.5 km/h (1 Bft) O-SO 0.00 h 0.0 UV-I 0 W/m 13.3 C 14.8 C 3.8 km/h (1 Bft)
19.09.2006 22:00 14.7 C 91 % 1018.2 hPa 0.0 l/m 1.4 km/h (1 Bft) O-SO 0.00 h 0.0 UV-I 0 W/m 13.3 C 14.7 C 2.8 km/h (1 Bft)
19.09.2006 23:00 14.6 C 93 % 1018.4 hPa 0.0 l/m 1.6 km/h (1 Bft) O-SO 0.00 h 0.0 UV-I 0 W/m 13.4 C 14.6 C 2.6 km/h (1 Bft)
20.09.2006 00:00 14.5 C 95 % 1018.7 hPa 0.0 l/m 0.1 km/h (0 Bft) O-SO 0.00 h 0.0 UV-I 0 W/m 13.6 C 14.5 C 0.4 km/h (0 Bft)
20.09.2006 01:00 13.6 C 97 % 1018.4 hPa 0.0 l/m 0.5 km/h (0 Bft) O-SO 0.00 h 0.0 UV-I 0 W/m 13.2 C 13.6 C 0.8 km/h (0 Bft)
20.09.2006 02:00 12.9 C 98 % 1018.1 hPa 0.0 l/m 1.0 km/h (0 Bft) O-SO 0.00 h 0.0 UV-I 0 W/m 12.7 C 12.9 C 1.9 km/h (1 Bft)
20.09.2006 03:00 12.4 C 99 % 1018.2 hPa 0.0 l/m 0.0 km/h (0 Bft) O-SO 0.00 h 0.0 UV-I 0 W/m 12.3 C 12.4 C 0.4 km/h (0 Bft)
20.09.2006 04:00 12.7 C 100 % 1018.2 hPa 0.0 l/m 0.3 km/h (0 Bft) S 0.00 h 0.0 UV-I 0 W/m 12.7 C 12.7 C 1.1 km/h (1 Bft)
20.09.2006 05:00 12.6 C 100 % 1018.0 hPa 0.0 l/m 0.7 km/h (0 Bft) S 0.00 h 0.0 UV-I 0 W/m 12.5 C 12.6 C 1.8 km/h (1 Bft)
20.09.2006 06:00 12.5 C 100 % 1018.1 hPa 0.0 l/m 0.1 km/h (0 Bft) W-NW 0.00 h 0.0 UV-I 0 W/m 12.4 C 12.5 C 0.4 km/h (0 Bft)
20.09.2006 07:00 12.5 C 100 % 1018.4 hPa 0.0 l/m 1.2 km/h (1 Bft) W-NW 0.00 h 0.0 UV-I 12 W/m 12.5 C 12.5 C 2.3 km/h (1 Bft)
20.09.2006 08:00 12.1 C 100 % 1019.0 hPa 0.0 l/m 0.3 km/h (0 Bft) W 0.00 h 0.5 UV-I 53 W/m 12.1 C 12.1 C 1.4 km/h (1 Bft)
20.09.2006 09:00 13.3 C 98 % 1019.1 hPa 0.0 l/m 1.0 km/h (0 Bft) W-NW 0.15 h 0.9 UV-I 173 W/m 12.9 C 13.3 C 2.4 km/h (1 Bft)
20.09.2006 10:00 14.6 C 93 % 1019.3 hPa 0.0 l/m 1.4 km/h (1 Bft) W-NW 0.57 h 2.2 UV-I 346 W/m 13.5 C 14.6 C 2.7 km/h (1 Bft)
20.09.2006 11:00 17.2 C 85 % 1019.0 hPa 0.0 l/m 2.2 km/h (1 Bft) W 1.00 h 3.4 UV-I 527 W/m 14.7 C 17.2 C 4.1 km/h (1 Bft)
20.09.2006 12:00 19.2 C 75 % 1018.5 hPa 0.0 l/m 2.4 km/h (1 Bft) W-NW 1.00 h 4.3 UV-I 591 W/m 14.7 C 19.2 C 4.6 km/h (1 Bft)
20.09.2006 13:00 20.9 C 63 % 1018.1 hPa 0.0 l/m 4.8 km/h (1 Bft) O-SO 1.00 h 4.8 UV-I 625 W/m 13.6 C 20.9 C 7.7 km/h (2 Bft)
20.09.2006 14:00 21.5 C 61 % 1017.6 hPa 0.0 l/m 3.7 km/h (1 Bft) O-SO 0.33 h 3.5 UV-I 247 W/m 13.6 C 21.5 C 6.2 km/h (2 Bft)
20.09.2006 15:00 22.3 C 59 % 1017.1 hPa 0.0 l/m 2.3 km/h (1 Bft) SO 1.00 h 3.2 UV-I 517 W/m 14.0 C 22.3 C 4.8 km/h (1 Bft)
20.09.2006 16:00 22.2 C 60 % 1016.8 hPa 0.0 l/m 4.2 km/h (1 Bft) O-SO 1.00 h 2.1 UV-I 397 W/m 14.1 C 22.2 C 6.7 km/h (2 Bft)
20.09.2006 17:00 22.1 C 62 % 1016.4 hPa 0.0 l/m 2.5 km/h (1 Bft) O-SO 1.00 h 1.0 UV-I 247 W/m 14.4 C 22.1 C 4.6 km/h (1 Bft)
20.09.2006 18:00 21.0 C 68 % 1016.3 hPa 0.0 l/m 3.9 km/h (1 Bft) O-SO 0.05 h 0.6 UV-I 52 W/m 14.7 C 21.0 C 6.0 km/h (2 Bft)
20.09.2006 19:00 18.8 C 77 % 1016.7 hPa 0.0 l/m 3.9 km/h (1 Bft) O-SO 0.05 h 0.0 UV-I 17 W/m 14.6 C 18.8 C 5.2 km/h (1 Bft)
20.09.2006 20:00 16.5 C 88 % 1017.3 hPa 0.0 l/m 0.2 km/h (0 Bft) O-SO 0.00 h 0.0 UV-I 0 W/m 14.5 C 16.5 C 0.4 km/h (0 Bft)
20.09.2006 21:00 14.9 C 93 % 1017.8 hPa 0.0 l/m 0.9 km/h (0 Bft) O-SO 0.00 h 0.0 UV-I 0 W/m 13.8 C 14.9 C 1.6 km/h (1 Bft)
20.09.2006 22:00 14.2 C 95 % 1017.9 hPa 0.0 l/m 0.5 km/h (0 Bft) O-SO 0.00 h 0.0 UV-I 0 W/m 13.4 C 14.2 C 1.3 km/h (1 Bft)
20.09.2006 23:00 13.4 C 97 % 1017.7 hPa 0.0 l/m 0.3 km/h (0 Bft) O-SO 0.00 h 0.0 UV-I 0 W/m 13.0 C 13.4 C 1.1 km/h (1 Bft)
21.09.2006 00:00 13.0 C 98 % 1017.5 hPa 0.0 l/m 0.3 km/h (0 Bft) O-SO 0.00 h 0.0 UV-I 0 W/m 12.7 C 13.0 C 0.4 km/h (0 Bft)
21.09.2006 01:00 12.6 C 99 % 1017.4 hPa 0.0 l/m 0.1 km/h (0 Bft) O-SO 0.00 h 0.0 UV-I 0 W/m 12.4 C 12.6 C 0.7 km/h (0 Bft)
21.09.2006 02:00 12.1 C 99 % 1017.4 hPa 0.0 l/m 0.2 km/h (0 Bft) O-SO 0.00 h 0.0 UV-I 0 W/m 11.9 C 12.1 C 0.7 km/h (0 Bft)
21.09.2006 03:00 11.6 C 99 % 1017.5 hPa 0.0 l/m 1.0 km/h (0 Bft) O-SO 0.00 h 0.0 UV-I 0 W/m 11.4 C 11.6 C 2.1 km/h (1 Bft)
21.09.2006 04:00 11.3 C 99 % 1017.4 hPa 0.0 l/m 0.2 km/h (0 Bft) O-SO 0.00 h 0.0 UV-I 0 W/m 11.2 C 11.3 C 0.6 km/h (0 Bft)
21.09.2006 05:00 11.5 C 100 % 1017.2 hPa 0.0 l/m 0.3 km/h (0 Bft) O-SO 0.00 h 0.0 UV-I 0 W/m 11.5 C 11.5 C 0.9 km/h (0 Bft)
21.09.2006 06:00 11.3 C 100 % 1017.2 hPa 0.0 l/m 1.0 km/h (0 Bft) O 0.00 h 0.0 UV-I 0 W/m 11.3 C 11.3 C 2.6 km/h (1 Bft)
21.09.2006 07:00 11.1 C 100 % 1017.3 hPa 0.0 l/m 1.0 km/h (0 Bft) O-SO 0.00 h 0.0 UV-I 14 W/m 11.1 C 11.1 C 2.4 km/h (1 Bft)
21.09.2006 08:00 11.6 C 100 % 1017.5 hPa 0.0 l/m 0.0 km/h (0 Bft) O-SO 0.00 h 0.5 UV-I 49 W/m 11.6 C 11.6 C 0.3 km/h (0 Bft)
21.09.2006 09:00 12.3 C 100 % 1018.0 hPa 0.0 l/m 0.4 km/h (0 Bft) O-SO 0.02 h 0.8 UV-I 139 W/m 12.3 C 12.3 C 1.3 km/h (1 Bft)
21.09.2006 10:00 13.8 C 98 % 1017.9 hPa 0.0 l/m 1.4 km/h (1 Bft) W-NW 0.22 h 1.8 UV-I 254 W/m 13.5 C 13.8 C 3.2 km/h (1 Bft)
21.09.2006 11:00 16.0 C 89 % 1017.4 hPa 0.0 l/m 2.1 km/h (1 Bft) W 1.00 h 3.4 UV-I 531 W/m 14.1 C 16.0 C 4.1 km/h (1 Bft)
21.09.2006 12:00 18.3 C 83 % 1016.5 hPa 0.0 l/m 2.9 km/h (1 Bft) W-NW 1.00 h 4.2 UV-I 601 W/m 15.3 C 18.3 C 4.6 km/h (1 Bft)
21.09.2006 13:00 20.7 C 75 % 1015.5 hPa 0.0 l/m 3.5 km/h (1 Bft) NW 0.87 h 4.4 UV-I 545 W/m 16.1 C 20.7 C 5.3 km/h (1 Bft)
21.09.2006 14:00 22.6 C 69 % 1014.6 hPa 0.0 l/m 1.5 km/h (1 Bft) SO 0.27 h 3.0 UV-I 204 W/m 16.5 C 22.6 C 3.5 km/h (1 Bft)
21.09.2006 15:00 23.9 C 63 % 1013.8 hPa 0.0 l/m 1.5 km/h (1 Bft) N 1.00 h 3.0 UV-I 521 W/m 16.5 C 23.9 C 3.6 km/h (1 Bft)
21.09.2006 16:00 24.3 C 63 % 1013.3 hPa 0.0 l/m 2.4 km/h (1 Bft) O-SO 1.00 h 1.8 UV-I 397 W/m 16.8 C 24.3 C 4.5 km/h (1 Bft)
21.09.2006 17:00 23.9 C 63 % 1013.1 hPa 0.0 l/m 4.7 km/h (1 Bft) O-SO 1.00 h 1.0 UV-I 247 W/m 16.4 C 23.9 C 7.2 km/h (2 Bft)
21.09.2006 18:00 22.7 C 68 % 1013.2 hPa 0.0 l/m 2.1 km/h (1 Bft) O-SO 0.07 h 0.6 UV-I 40 W/m 16.4 C 22.7 C 3.7 km/h (1 Bft)
21.09.2006 19:00 20.1 C 81 % 1013.3 hPa 0.0 l/m 0.6 km/h (0 Bft) O-SO 0.00 h 0.0 UV-I 13 W/m 16.7 C 20.1 C 1.2 km/h (1 Bft)
21.09.2006 20:00 17.3 C 90 % 1013.9 hPa 0.0 l/m 2.4 km/h (1 Bft) O-SO 0.00 h 0.0 UV-I 0 W/m 15.7 C 17.3 C 3.7 km/h (1 Bft)
21.09.2006 21:00 16.1 C 93 % 1014.1 hPa 0.0 l/m 1.9 km/h (1 Bft) O 0.00 h 0.0 UV-I 0 W/m 15.0 C 16.1 C 2.7 km/h (1 Bft)
21.09.2006 22:00 15.2 C 96 % 1014.1 hPa 0.0 l/m 0.3 km/h (0 Bft) NO 0.00 h 0.0 UV-I 0 W/m 14.5 C 15.2 C 0.6 km/h (0 Bft)
21.09.2006 23:00 14.2 C 98 % 1013.9 hPa 0.0 l/m 0.9 km/h (0 Bft) O 0.00 h 0.0 UV-I 0 W/m 13.9 C 14.2 C 1.4 km/h (1 Bft)
22.09.2006 00:00 13.7 C 98 % 1013.4 hPa 0.0 l/m 0.4 km/h (0 Bft) O 0.00 h 0.0 UV-I 0 W/m 13.4 C 13.7 C 0.7 km/h (0 Bft)
22.09.2006 01:00 12.9 C 99 % 1013.6 hPa 0.0 l/m 1.0 km/h (0 Bft) O 0.00 h 0.0 UV-I 0 W/m 12.7 C 12.9 C 2.0 km/h (1 Bft)
22.09.2006 02:00 12.7 C 99 % 1013.4 hPa 0.0 l/m 0.1 km/h (0 Bft) O 0.00 h 0.0 UV-I 0 W/m 12.5 C 12.7 C 0.4 km/h (0 Bft)
22.09.2006 03:00 12.2 C 99 % 1013.4 hPa 0.0 l/m 0.5 km/h (0 Bft) O 0.00 h 0.0 UV-I 0 W/m 12.1 C 12.2 C 1.2 km/h (1 Bft)
22.09.2006 04:00 11.8 C 100 % 1013.4 hPa 0.0 l/m 0.6 km/h (0 Bft) O 0.00 h 0.0 UV-I 0 W/m 11.8 C 11.8 C 1.0 km/h (0 Bft)
22.09.2006 05:00 12.1 C 100 % 1013.6 hPa 0.2 l/m 1.6 km/h (1 Bft) O-SO 0.00 h 0.0 UV-I 0 W/m 12.1 C 12.1 C 2.7 km/h (1 Bft)
22.09.2006 06:00 12.3 C 100 % 1013.7 hPa 0.0 l/m 0.5 km/h (0 Bft) O 0.00 h 0.0 UV-I 0 W/m 12.3 C 12.3 C 1.4 km/h (1 Bft)
22.09.2006 07:00 12.3 C 100 % 1014.0 hPa 0.0 l/m 0.0 km/h (0 Bft) N 0.00 h 0.0 UV-I 13 W/m 12.3 C 12.3 C 0.5 km/h (0 Bft)
22.09.2006 08:00 12.7 C 100 % 1014.1 hPa 0.0 l/m 0.3 km/h (0 Bft) O 0.00 h 0.5 UV-I 50 W/m 12.7 C 12.7 C 1.2 km/h (1 Bft)
22.09.2006 09:00 13.4 C 100 % 1014.1 hPa 0.0 l/m 0.6 km/h (0 Bft) O 0.03 h 0.8 UV-I 139 W/m 13.4 C 13.4 C 1.8 km/h (1 Bft)
22.09.2006 10:00 15.0 C 97 % 1014.3 hPa 0.0 l/m 1.0 km/h (0 Bft) O 0.53 h 2.1 UV-I 342 W/m 14.5 C 15.0 C 2.8 km/h (1 Bft)
22.09.2006 11:00 17.9 C 84 % 1013.6 hPa 0.0 l/m 2.2 km/h (1 Bft) N-NW 1.00 h 3.4 UV-I 543 W/m 15.2 C 17.9 C 4.1 km/h (1 Bft)
22.09.2006 12:00 21.0 C 71 % 1013.2 hPa 0.0 l/m 3.2 km/h (1 Bft) SO 1.00 h 4.2 UV-I 612 W/m 15.4 C 21.0 C 5.8 km/h (2 Bft)
22.09.2006 13:00 22.3 C 65 % 1013.0 hPa 0.0 l/m 2.4 km/h (1 Bft) W-NW 0.82 h 4.4 UV-I 530 W/m 15.4 C 22.3 C 4.3 km/h (1 Bft)
22.09.2006 14:00 23.7 C 63 % 1012.4 hPa 0.0 l/m 3.1 km/h (1 Bft) W-NW 0.28 h 2.7 UV-I 200 W/m 16.2 C 23.7 C 5.1 km/h (1 Bft)
22.09.2006 15:00 24.9 C 59 % 1012.0 hPa 0.0 l/m 2.2 km/h (1 Bft) W 0.88 h 2.8 UV-I 476 W/m 16.3 C 24.9 C 4.0 km/h (1 Bft)
22.09.2006 16:00 25.1 C 58 % 1011.9 hPa 0.0 l/m 1.8 km/h (1 Bft) W 0.90 h 1.7 UV-I 370 W/m 16.2 C 25.1 C 3.4 km/h (1 Bft)
22.09.2006 17:00 25.0 C 58 % 1012.0 hPa 0.0 l/m 1.7 km/h (1 Bft) W-NW 0.65 h 0.9 UV-I 214 W/m 16.0 C 25.0 C 3.3 km/h (1 Bft)
22.09.2006 18:00 22.4 C 71 % 1012.5 hPa 0.0 l/m 1.0 km/h (0 Bft) O 0.00 h 0.0 UV-I 35 W/m 16.7 C 22.4 C 1.7 km/h (1 Bft)
22.09.2006 19:00 19.6 C 82 % 1012.9 hPa 0.0 l/m 2.8 km/h (1 Bft) O-SO 0.00 h 0.0 UV-I 12 W/m 16.3 C 19.6 C 4.0 km/h (1 Bft)
22.09.2006 20:00 18.0 C 91 % 1013.3 hPa 0.0 l/m 1.2 km/h (1 Bft) O-SO 0.00 h 0.0 UV-I 0 W/m 16.4 C 18.0 C 2.0 km/h (1 Bft)
22.09.2006 21:00 17.0 C 94 % 1013.6 hPa 0.0 l/m 0.7 km/h (0 Bft) O-SO 0.00 h 0.0 UV-I 0 W/m 16.1 C 17.0 C 1.5 km/h (1 Bft)
22.09.2006 22:00 16.3 C 96 % 1013.7 hPa 0.0 l/m 0.5 km/h (0 Bft) O-SO 0.00 h 0.0 UV-I 0 W/m 15.6 C 16.3 C 1.4 km/h (1 Bft)
22.09.2006 23:00 15.8 C 96 % 1013.6 hPa 0.0 l/m 1.5 km/h (1 Bft) O 0.00 h 0.0 UV-I 0 W/m 15.2 C 15.8 C 2.5 km/h (1 Bft)
23.09.2006 00:00 15.1 C 98 % 1013.3 hPa 0.0 l/m 0.2 km/h (0 Bft) O-SO 0.00 h 0.0 UV-I 0 W/m 14.7 C 15.1 C 0.6 km/h (0 Bft)
23.09.2006 01:00 14.7 C 99 % 1013.1 hPa 0.0 l/m 0.7 km/h (0 Bft) O-SO 0.00 h 0.0 UV-I 0 W/m 14.5 C 14.7 C 1.3 km/h (1 Bft)
23.09.2006 02:00 14.5 C 99 % 1012.8 hPa 0.0 l/m 0.4 km/h (0 Bft) O-SO 0.00 h 0.0 UV-I 0 W/m 14.3 C 14.5 C 0.9 km/h (0 Bft)
23.09.2006 03:00 14.0 C 99 % 1012.4 hPa 0.0 l/m 0.1 km/h (0 Bft) O-SO 0.00 h 0.0 UV-I 0 W/m 13.9 C 14.0 C 0.7 km/h (0 Bft)
23.09.2006 04:00 13.7 C 100 % 1012.3 hPa 0.0 l/m 0.7 km/h (0 Bft) O-SO 0.00 h 0.0 UV-I 0 W/m 13.7 C 13.7 C 1.5 km/h (1 Bft)
23.09.2006 05:00 13.4 C 100 % 1012.4 hPa 0.0 l/m 0.5 km/h (0 Bft) O-SO 0.00 h 0.0 UV-I 0 W/m 13.4 C 13.4 C 1.2 km/h (1 Bft)
23.09.2006 06:00 13.5 C 100 % 1012.7 hPa 0.0 l/m 0.7 km/h (0 Bft) O 0.00 h 0.0 UV-I 0 W/m 13.5 C 13.5 C 1.6 km/h (1 Bft)
23.09.2006 07:00 13.5 C 100 % 1013.2 hPa 0.0 l/m 0.3 km/h (0 Bft) O 0.00 h 0.0 UV-I 14 W/m 13.5 C 13.5 C 1.0 km/h (0 Bft)
23.09.2006 08:00 14.0 C 100 % 1013.4 hPa 0.2 l/m 0.7 km/h (0 Bft) O 0.00 h 0.5 UV-I 55 W/m 14.0 C 14.0 C 1.8 km/h (1 Bft)
23.09.2006 09:00 14.6 C 100 % 1013.5 hPa 0.0 l/m 0.3 km/h (0 Bft) O-SO 0.00 h 0.7 UV-I 105 W/m 14.6 C 14.6 C 0.9 km/h (0 Bft)
23.09.2006 10:00 15.8 C 99 % 1013.5 hPa 0.0 l/m 0.9 km/h (0 Bft) O-SO 0.00 h 1.3 UV-I 175 W/m 15.6 C 15.8 C 2.3 km/h (1 Bft)
23.09.2006 11:00 17.4 C 92 % 1013.3 hPa 0.0 l/m 1.8 km/h (1 Bft) W-NW 0.00 h 2.0 UV-I 232 W/m 16.0 C 17.4 C 3.5 km/h (1 Bft)
23.09.2006 12:00 19.1 C 84 % 1012.7 hPa 0.0 l/m 1.9 km/h (1 Bft) W-NW 0.50 h 3.3 UV-I 432 W/m 16.4 C 19.1 C 3.7 km/h (1 Bft)
23.09.2006 13:00 20.6 C 79 % 1012.1 hPa 0.0 l/m 3.8 km/h (1 Bft) NW 0.92 h 3.9 UV-I 558 W/m 16.8 C 20.6 C 6.0 km/h (2 Bft)
23.09.2006 14:00 21.4 C 76 % 1011.7 hPa 0.0 l/m 2.7 km/h (1 Bft) N-NW 0.77 h 3.2 UV-I 432 W/m 17.1 C 21.4 C 4.6 km/h (1 Bft)
23.09.2006 15:00 22.4 C 75 % 1011.1 hPa 0.0 l/m 2.5 km/h (1 Bft) O-SO 0.90 h 2.6 UV-I 410 W/m 17.7 C 22.4 C 4.5 km/h (1 Bft)
23.09.2006 16:00 22.6 C 75 % 1010.7 hPa 0.0 l/m 3.7 km/h (1 Bft) O-SO 1.00 h 1.7 UV-I 327 W/m 17.9 C 22.6 C 6.4 km/h (2 Bft)
23.09.2006 17:00 21.4 C 73 % 1010.5 hPa 0.0 l/m 2.8 km/h (1 Bft) O-SO 0.00 h 0.8 UV-I 124 W/m 16.3 C 21.4 C 5.2 km/h (1 Bft)
23.09.2006 18:00 20.6 C 78 % 1010.5 hPa 0.0 l/m 1.6 km/h (1 Bft) O 0.02 h 0.5 UV-I 57 W/m 16.6 C 20.6 C 3.4 km/h (1 Bft)
23.09.2006 19:00 19.0 C 83 % 1010.9 hPa 0.0 l/m 1.5 km/h (1 Bft) O 0.00 h 0.0 UV-I 10 W/m 16.2 C 19.0 C 2.5 km/h (1 Bft)
23.09.2006 20:00 17.4 C 91 % 1011.1 hPa 0.0 l/m 1.6 km/h (1 Bft) O 0.00 h 0.0 UV-I 0 W/m 15.9 C 17.4 C 2.5 km/h (1 Bft)
23.09.2006 21:00 16.3 C 95 % 1011.3 hPa 0.0 l/m 0.8 km/h (0 Bft) O-SO 0.00 h 0.0 UV-I 0 W/m 15.5 C 16.3 C 1.7 km/h (1 Bft)
23.09.2006 22:00 15.8 C 96 % 1011.2 hPa 0.0 l/m 1.6 km/h (1 Bft) O 0.00 h 0.0 UV-I 0 W/m 15.1 C 15.8 C 3.1 km/h (1 Bft)
23.09.2006 23:00 15.2 C 98 % 1010.9 hPa 0.0 l/m 0.3 km/h (0 Bft) O-SO 0.00 h 0.0 UV-I 0 W/m 14.8 C 15.2 C 1.1 km/h (0 Bft)
24.09.2006 00:00 14.8 C 99 % 1010.4 hPa 0.0 l/m 0.9 km/h (0 Bft) SO 0.00 h 0.0 UV-I 0 W/m 14.6 C 14.8 C 1.8 km/h (1 Bft)
24.09.2006 01:00 14.4 C 100 % 1010.1 hPa 0.0 l/m 0.0 km/h (0 Bft) N 0.00 h 0.0 UV-I 0 W/m 14.3 C 14.4 C 0.1 km/h (0 Bft)
24.09.2006 02:00 14.0 C 100 % 1010.1 hPa 0.0 l/m 0.1 km/h (0 Bft) O-SO 0.00 h 0.0 UV-I 0 W/m 14.0 C 14.0 C 0.4 km/h (0 Bft)
24.09.2006 03:00 13.7 C 100 % 1010.0 hPa 0.0 l/m 0.2 km/h (0 Bft) O-SO 0.00 h 0.0 UV-I 0 W/m 13.7 C 13.7 C 0.5 km/h (0 Bft)
24.09.2006 04:00 13.6 C 100 % 1010.4 hPa 0.0 l/m 1.4 km/h (1 Bft) O-SO 0.00 h 0.0 UV-I 0 W/m 13.6 C 13.6 C 2.1 km/h (1 Bft)
24.09.2006 05:00 13.3 C 100 % 1010.5 hPa 0.0 l/m 1.1 km/h (0 Bft) O-SO 0.00 h 0.0 UV-I 0 W/m 13.3 C 13.3 C 2.4 km/h (1 Bft)
24.09.2006 06:00 13.5 C 100 % 1010.8 hPa 0.0 l/m 0.1 km/h (0 Bft) O-SO 0.00 h 0.0 UV-I 0 W/m 13.5 C 13.5 C 0.5 km/h (0 Bft)
24.09.2006 07:00 13.9 C 100 % 1011.2 hPa 0.0 l/m 0.0 km/h (0 Bft) N 0.00 h 0.0 UV-I 16 W/m 13.9 C 13.9 C 0.2 km/h (0 Bft)
24.09.2006 08:00 14.5 C 99 % 1011.5 hPa 0.0 l/m 0.2 km/h (0 Bft) O-SO 0.00 h 0.0 UV-I 41 W/m 14.4 C 14.5 C 0.8 km/h (0 Bft)
24.09.2006 09:00 14.9 C 98 % 1011.8 hPa 0.0 l/m 0.8 km/h (0 Bft) SW 0.00 h 0.6 UV-I 77 W/m 14.6 C 14.9 C 2.1 km/h (1 Bft)
24.09.2006 10:00 15.8 C 95 % 1012.3 hPa 0.0 l/m 0.9 km/h (0 Bft) W-SW 0.00 h 1.1 UV-I 151 W/m 15.0 C 15.8 C 2.1 km/h (1 Bft)
24.09.2006 11:00 17.4 C 91 % 1012.2 hPa 0.0 l/m 2.2 km/h (1 Bft) NW 0.15 h 2.2 UV-I 286 W/m 16.0 C 17.4 C 4.5 km/h (1 Bft)
24.09.2006 12:00 19.1 C 86 % 1011.6 hPa 0.0 l/m 4.1 km/h (1 Bft) W-NW 0.67 h 3.7 UV-I 461 W/m 16.6 C 19.1 C 6.5 km/h (2 Bft)
24.09.2006 13:00 20.9 C 80 % 1010.9 hPa 0.0 l/m 4.1 km/h (1 Bft) W-NW 1.00 h 4.1 UV-I 548 W/m 17.3 C 20.9 C 6.2 km/h (2 Bft)
24.09.2006 14:00 22.6 C 74 % 1009.9 hPa 0.0 l/m 2.7 km/h (1 Bft) W-NW 0.53 h 3.3 UV-I 419 W/m 17.8 C 22.6 C 4.9 km/h (1 Bft)
24.09.2006 15:00 23.6 C 71 % 1009.0 hPa 0.0 l/m 4.1 km/h (1 Bft) O-SO 0.48 h 2.6 UV-I 344 W/m 17.9 C 23.6 C 7.0 km/h (2 Bft)
24.09.2006 16:00 24.0 C 67 % 1008.1 hPa 0.0 l/m 8.3 km/h (2 Bft) O-SO 0.85 h 1.7 UV-I 317 W/m 17.5 C 24.0 C 13.0 km/h (3 Bft)
24.09.2006 17:00 23.3 C 69 % 1007.5 hPa 0.0 l/m 6.9 km/h (2 Bft) O-SO 0.18 h 0.8 UV-I 151 W/m 17.2 C 23.3 C 11.7 km/h (2 Bft)
24.09.2006 18:00 21.7 C 76 % 1007.2 hPa 0.0 l/m 1.2 km/h (1 Bft) O-SO 0.00 h 0.0 UV-I 19 W/m 17.3 C 21.7 C 2.6 km/h (1 Bft)
24.09.2006 19:00 20.3 C 83 % 1007.1 hPa 0.0 l/m 0.5 km/h (0 Bft) N 0.00 h 0.0 UV-I 5 W/m 17.2 C 20.3 C 2.1 km/h (1 Bft)
24.09.2006 20:00 19.9 C 79 % 1007.1 hPa 0.0 l/m 1.1 km/h (1 Bft) NO 0.00 h 0.0 UV-I 0 W/m 16.2 C 19.9 C 3.4 km/h (1 Bft)
24.09.2006 21:00 19.7 C 76 % 1007.1 hPa 0.0 l/m 1.8 km/h (1 Bft) NO 0.00 h 0.0 UV-I 0 W/m 15.3 C 19.7 C 4.6 km/h (1 Bft)
24.09.2006 22:00 18.1 C 84 % 1007.1 hPa 0.0 l/m 0.8 km/h (0 Bft) N-NO 0.00 h 0.0 UV-I 0 W/m 15.3 C 18.1 C 1.9 km/h (1 Bft)
24.09.2006 23:00 16.8 C 90 % 1007.2 hPa 0.0 l/m 1.4 km/h (1 Bft) N 0.00 h 0.0 UV-I 0 W/m 15.2 C 16.8 C 3.4 km/h (1 Bft)
Min-Datum _ 21.09.06 22.09.06 24.09.06 - 18.09.06 - - - - 21.09.06 21.09.06 18.09.06
_ Min-Zeit 04:24 17:04 22:45 - 00:11 - - - - 04:24 04:24 00:16
Minimum _ 11.0 C 50 % 1006.8 hPa - 0.0 km/h (0 Bft) - - - - 10.8 C 11.0 C 0.0 km/h (0 Bft)
Max-Datum _ 22.09.06 20.09.06 20.09.06 18.09.06 18.09.06 - 19.09.06 19.09.06 19.09.06 23.09.06 22.09.06 18.09.06
_ Max-Zeit 17:15 03:47 10:45 01:04 13:49 - 09:34 13:13 12:26 16:29 17:15 13:49
Maximum _ 25.5 C 100 % 1019.4 hPa 4.8 l/m 18.5 km/h
W-NW (3 Bft)
- 0.02 h 4.9 UV-I 733 W/m 18.5 C 25.5 C 28.8 km/h
W-NW (4 Bft)
Durchschnitt _ 16.5 C 89 % 1014.2 hPa #20.2 l/m 1.9 km/h (1 Bft) O-SO #32:17 h 2.1 UV-I 228 W/m 14.4 C 16.5 C 3.6 km/h (1 Bft)
© Kaiko 2006